Time;durP1;ratioP1;P1;durP2;ratioP2;P2;SDS_P1;SDS_P2;PMS_P1;PMS_P2;Temp;Humidity;BMP_temperature;BMP_pressure;BME280_temperature;BME280_humidity;BME280_pressure;Samples;Min_cycle;Max_cycle;Signal;HPM_P1;HPM_P2
2023/08/11 00:02:22;;;;;;;3.10;1.17;;;15.70;99.90;;;;;;4957694;28;20183;-82
2023/08/11 00:04:50;;;;;;;1.90;0.88;;;15.70;99.90;;;;;;4963540;28;20034;-82
2023/08/11 00:07:16;;;;;;;1.90;1.00;;;15.70;99.90;;;;;;4963774;28;20039;-82
2023/08/11 00:09:42;;;;;;;1.77;0.73;;;15.70;99.90;;;;;;4958830;28;20114;-82
2023/08/11 00:12:08;;;;;;;2.90;1.08;;;15.70;99.90;;;;;;4956436;28;20122;-82
2023/08/11 00:14:33;;;;;;;2.45;0.98;;;15.70;99.90;;;;;;4951249;28;20034;-83
2023/08/11 00:16:59;;;;;;;3.35;1.20;;;15.70;99.90;;;;;;4958192;28;20118;-83
2023/08/11 00:19:25;;;;;;;2.30;1.00;;;15.60;99.90;;;;;;4958374;28;20490;-83
2023/08/11 00:21:51;;;;;;;1.65;1.00;;;15.60;99.90;;;;;;4947337;28;20068;-82
2023/08/11 00:24:17;;;;;;;2.25;1.00;;;15.60;99.90;;;;;;4964188;28;20426;-81
2023/08/11 00:26:43;;;;;;;2.47;0.85;;;15.60;99.90;;;;;;4956881;28;20082;-82
2023/08/11 00:29:08;;;;;;;1.88;0.80;;;15.60;99.90;;;;;;4955735;28;20032;-82
2023/08/11 00:31:35;;;;;;;2.30;0.85;;;15.60;99.90;;;;;;4961009;28;20391;-82
2023/08/11 00:34:01;;;;;;;2.60;0.93;;;15.60;99.90;;;;;;4957738;28;20039;-82
2023/08/11 00:36:27;;;;;;;2.72;0.70;;;15.50;99.90;;;;;;4962360;28;20455;-81
2023/08/11 00:38:52;;;;;;;1.90;0.70;;;15.50;99.90;;;;;;4958614;28;20491;-82
2023/08/11 00:41:18;;;;;;;2.08;0.85;;;15.60;99.90;;;;;;4957864;28;20109;-82
2023/08/11 00:43:44;;;;;;;2.20;0.85;;;15.50;99.90;;;;;;4959542;28;20024;-82
2023/08/11 00:46:13;;;;;;;1.80;0.80;;;15.50;99.90;;;;;;4960979;28;20137;-81
2023/08/11 00:48:44;;;;;;;1.98;1.00;;;15.50;99.90;;;;;;4964038;28;20114;-82
2023/08/11 00:51:15;;;;;;;2.50;1.23;;;15.40;99.90;;;;;;4948942;28;20051;-82
2023/08/11 00:53:41;;;;;;;2.20;0.80;;;15.40;99.90;;;;;;4942372;28;20028;-82
2023/08/11 00:56:07;;;;;;;1.83;0.88;;;15.50;99.90;;;;;;4959169;28;20046;-82
2023/08/11 00:58:34;;;;;;;2.38;1.42;;;15.40;99.90;;;;;;4941448;28;20023;-81
2023/08/11 01:01:00;;;;;;;1.85;1.00;;;15.40;99.90;;;;;;4961442;28;20035;-82
2023/08/11 01:03:26;;;;;;;1.80;0.77;;;15.40;99.90;;;;;;4963768;28;20026;-82
2023/08/11 01:06:18;;;;;;;2.85;1.10;;;15.40;99.90;;;;;;4960501;28;20446;-82
2023/08/11 01:09:07;;;;;;;2.42;1.00;;;15.30;99.90;;;;;;4947389;28;20118;-81
2023/08/11 01:11:40;;;;;;;2.30;0.90;;;15.30;99.90;;;;;;4978658;28;20031;-81
2023/08/11 01:14:18;;;;;;;2.00;1.05;;;15.30;99.90;;;;;;4946973;28;20031;-82
2023/08/11 01:16:48;;;;;;;3.20;1.10;;;15.30;99.90;;;;;;4973949;28;20034;-82
2023/08/11 01:19:32;;;;;;;2.13;1.10;;;15.30;99.90;;;;;;4958776;28;20024;-82
2023/08/11 01:22:01;;;;;;;3.38;0.95;;;15.20;99.90;;;;;;4963606;28;20442;-82
2023/08/11 01:24:28;;;;;;;3.72;1.20;;;15.20;99.90;;;;;;4953922;28;20034;-82
2023/08/11 01:26:55;;;;;;;2.10;1.08;;;15.20;99.90;;;;;;4979968;28;20093;-82
2023/08/11 01:29:21;;;;;;;3.13;1.08;;;15.20;99.90;;;;;;4960250;28;20029;-81
2023/08/11 01:31:47;;;;;;;2.50;0.90;;;15.20;99.90;;;;;;4950210;28;20030;-83
2023/08/11 01:34:13;;;;;;;5.72;1.02;;;15.20;99.90;;;;;;4953298;28;20043;-83
2023/08/11 01:36:41;;;;;;;1.65;1.05;;;15.10;99.90;;;;;;4963092;28;20067;-83
2023/08/11 01:39:09;;;;;;;2.67;0.90;;;15.10;99.90;;;;;;4962065;28;20379;-83
2023/08/11 01:41:36;;;;;;;4.30;0.93;;;15.10;99.90;;;;;;4962406;28;20027;-83
2023/08/11 01:44:03;;;;;;;2.45;0.80;;;15.10;99.90;;;;;;4962060;28;20065;-82
2023/08/11 01:46:30;;;;;;;2.13;0.70;;;15.10;99.90;;;;;;4967584;28;20567;-83
2023/08/11 01:48:56;;;;;;;1.75;0.70;;;15.10;99.90;;;;;;4962057;28;20038;-83
2023/08/11 01:51:24;;;;;;;1.60;1.00;;;15.00;99.90;;;;;;4953438;28;20034;-83
2023/08/11 01:53:51;;;;;;;1.80;0.90;;;15.10;99.90;;;;;;4963188;28;20030;-82
2023/08/11 01:56:19;;;;;;;2.72;1.23;;;15.10;99.90;;;;;;4958052;28;20050;-83
2023/08/11 01:58:45;;;;;;;2.30;1.05;;;15.00;99.90;;;;;;4951426;28;20034;-82
2023/08/11 02:01:13;;;;;;;1.88;1.05;;;15.00;99.90;;;;;;4945844;28;20035;-84
2023/08/11 02:03:40;;;;;;;3.13;0.90;;;15.00;99.90;;;;;;4960516;28;20054;-83
2023/08/11 02:06:06;;;;;;;2.13;1.00;;;15.00;99.90;;;;;;4950711;28;20405;-82
2023/08/11 02:08:32;;;;;;;2.10;1.05;;;15.00;99.90;;;;;;4953305;28;20047;-83
2023/08/11 02:10:58;;;;;;;1.45;0.70;;;14.90;99.90;;;;;;4962458;28;20054;-82
2023/08/11 02:13:24;;;;;;;1.60;0.85;;;14.90;99.90;;;;;;4959031;28;20464;-83
2023/08/11 02:15:50;;;;;;;1.55;0.70;;;14.90;99.90;;;;;;4948117;28;20499;-83
2023/08/11 02:18:15;;;;;;;1.52;0.82;;;14.90;99.90;;;;;;4962346;28;20071;-82
2023/08/11 02:20:41;;;;;;;3.10;1.00;;;14.90;99.90;;;;;;4965893;28;20030;-82
2023/08/11 02:23:08;;;;;;;1.60;0.77;;;14.90;99.90;;;;;;4947285;28;20039;-83
2023/08/11 02:25:34;;;;;;;1.52;0.70;;;14.80;99.90;;;;;;4959748;28;20041;-83
2023/08/11 02:28:00;;;;;;;1.77;0.70;;;14.90;99.90;;;;;;4963020;28;20443;-83
2023/08/11 02:30:29;;;;;;;1.73;0.93;;;14.80;99.90;;;;;;4959565;28;20019;-83
2023/08/11 02:32:55;;;;;;;2.08;0.90;;;14.80;99.90;;;;;;4956115;28;20058;-82
2023/08/11 02:35:21;;;;;;;1.38;0.77;;;14.90;99.90;;;;;;4958931;28;20055;-82
2023/08/11 02:37:48;;;;;;;1.77;0.88;;;14.90;99.90;;;;;;4960625;28;20034;-83
2023/08/11 02:40:14;;;;;;;1.60;0.88;;;14.90;99.90;;;;;;4950283;28;20020;-83
2023/08/11 02:42:52;;;;;;;2.15;0.70;;;14.80;99.90;;;;;;4958962;28;20031;-83
2023/08/11 02:45:18;;;;;;;1.40;0.75;;;14.80;99.90;;;;;;4956925;28;20027;-83
2023/08/11 02:47:44;;;;;;;1.85;0.63;;;14.80;99.90;;;;;;4953300;28;20081;-83
2023/08/11 02:50:10;;;;;;;1.80;0.90;;;14.90;99.90;;;;;;4961454;28;20122;-83
2023/08/11 02:52:37;;;;;;;2.33;0.80;;;14.80;99.90;;;;;;4948687;28;20022;-82
2023/08/11 02:55:07;;;;;;;2.30;0.80;;;14.80;99.90;;;;;;4956153;28;20031;-82
2023/08/11 02:57:34;;;;;;;1.73;0.75;;;14.80;99.90;;;;;;4959918;28;20399;-82
2023/08/11 03:00:01;;;;;;;1.77;1.05;;;14.70;99.90;;;;;;4962648;28;20094;-83
2023/08/11 03:02:26;;;;;;;2.03;0.80;;;14.70;99.90;;;;;;4941081;28;20031;-83
2023/08/11 03:04:52;;;;;;;1.20;0.60;;;14.80;99.90;;;;;;4957461;28;20038;-82
2023/08/11 03:07:18;;;;;;;1.88;0.70;;;14.80;99.90;;;;;;4950374;28;20752;-82
2023/08/11 03:09:44;;;;;;;2.05;0.93;;;14.70;99.90;;;;;;4964770;28;20082;-83
2023/08/11 03:12:10;;;;;;;1.55;0.75;;;14.60;99.90;;;;;;4966955;28;20031;-82
2023/08/11 03:14:39;;;;;;;3.25;0.70;;;14.60;99.90;;;;;;4950023;28;20070;-83
2023/08/11 03:17:05;;;;;;;1.38;0.70;;;14.60;99.90;;;;;;4942936;28;20043;-82
2023/08/11 03:19:32;;;;;;;1.80;0.90;;;14.60;99.90;;;;;;4973407;28;20062;-83
2023/08/11 03:21:59;;;;;;;1.92;0.88;;;14.50;99.90;;;;;;4961385;28;20181;-83
2023/08/11 03:24:24;;;;;;;3.28;0.80;;;14.50;99.90;;;;;;4962577;28;20086;-83
2023/08/11 03:26:50;;;;;;;1.58;0.85;;;14.50;99.90;;;;;;4959170;28;20462;-82
2023/08/11 03:29:16;;;;;;;1.60;0.80;;;14.50;99.90;;;;;;4955424;28;20082;-82
2023/08/11 03:31:42;;;;;;;1.90;0.63;;;14.50;99.90;;;;;;4949548;28;20518;-82
2023/08/11 03:34:08;;;;;;;1.90;0.90;;;14.50;99.90;;;;;;4963721;28;20061;-83
2023/08/11 03:36:34;;;;;;;1.50;0.70;;;14.50;99.90;;;;;;4960682;28;20039;-82
2023/08/11 03:39:01;;;;;;;2.00;0.80;;;14.50;99.90;;;;;;4961868;28;20507;-83
2023/08/11 03:41:27;;;;;;;2.03;1.00;;;14.50;99.90;;;;;;4946938;28;20030;-82
2023/08/11 03:43:53;;;;;;;2.28;1.17;;;14.50;99.90;;;;;;4946618;28;20030;-82
2023/08/11 03:46:19;;;;;;;1.90;0.90;;;14.40;99.90;;;;;;4960988;28;20054;-83
2023/08/11 03:48:45;;;;;;;2.03;0.95;;;14.40;99.90;;;;;;4958653;28;20460;-83
2023/08/11 03:51:11;;;;;;;3.35;1.30;;;14.40;99.90;;;;;;4963013;28;20027;-83
2023/08/11 03:53:37;;;;;;;2.22;0.80;;;14.40;99.90;;;;;;4963295;28;20027;-83
2023/08/11 03:56:07;;;;;;;2.65;0.93;;;14.40;99.90;;;;;;4946632;28;20125;-83
2023/08/11 03:58:39;;;;;;;2.83;0.90;;;14.40;99.90;;;;;;4944598;29;20020;-83
2023/08/11 04:01:05;;;;;;;2.40;1.00;;;14.30;99.90;;;;;;4949877;28;20043;-83
2023/08/11 04:03:32;;;;;;;2.13;0.93;;;14.20;99.90;;;;;;4958797;28;20062;-83
2023/08/11 04:05:59;;;;;;;1.75;0.88;;;14.30;99.90;;;;;;4951802;28;20027;-82
2023/08/11 04:08:26;;;;;;;1.95;0.88;;;14.40;99.90;;;;;;4962941;28;20034;-82
2023/08/11 04:10:53;;;;;;;1.70;0.80;;;14.40;99.90;;;;;;4956517;28;20034;-83
2023/08/11 04:13:19;;;;;;;1.70;0.80;;;14.30;99.90;;;;;;4964425;28;20502;-82
2023/08/11 04:15:49;;;;;;;2.58;0.80;;;14.20;99.90;;;;;;4960849;28;20047;-84
2023/08/11 04:18:15;;;;;;;1.90;1.00;;;14.20;99.90;;;;;;4949631;28;20379;-82
2023/08/11 04:20:41;;;;;;;2.60;0.80;;;14.20;99.90;;;;;;4944367;28;20023;-82
2023/08/11 04:23:06;;;;;;;1.83;0.95;;;14.30;99.90;;;;;;4948802;28;20287;-82
2023/08/11 04:25:35;;;;;;;3.00;0.80;;;14.20;99.90;;;;;;4962507;28;20067;-83
2023/08/11 04:28:02;;;;;;;2.20;1.00;;;14.30;99.90;;;;;;4948997;28;20024;-84
2023/08/11 04:30:28;;;;;;;1.88;0.95;;;14.30;99.90;;;;;;4948477;28;20031;-83
2023/08/11 04:32:55;;;;;;;2.28;1.00;;;14.30;99.90;;;;;;4958221;28;20456;-84
2023/08/11 04:35:22;;;;;;;2.42;1.02;;;14.30;99.90;;;;;;4961032;28;20483;-84
2023/08/11 04:37:49;;;;;;;2.10;1.15;;;14.30;99.90;;;;;;4959261;28;20031;-83
2023/08/11 04:40:17;;;;;;;2.88;1.02;;;14.30;99.90;;;;;;4961306;28;20114;-83
2023/08/11 04:42:45;;;;;;;2.10;1.00;;;14.40;99.90;;;;;;4950144;28;20110;-85
2023/08/11 04:45:16;;;;;;;1.73;0.90;;;14.30;99.90;;;;;;4965016;28;20375;-84
2023/08/11 04:47:42;;;;;;;2.15;0.90;;;14.30;99.90;;;;;;4942247;28;20022;-82
2023/08/11 04:50:12;;;;;;;1.83;0.77;;;14.40;99.90;;;;;;4957430;28;20031;-82
2023/08/11 04:52:38;;;;;;;2.60;1.05;;;14.50;99.90;;;;;;4964643;28;20050;-82
2023/08/11 04:55:05;;;;;;;1.83;0.93;;;14.40;99.90;;;;;;4941349;28;20381;-82
2023/08/11 04:57:31;;;;;;;1.50;0.80;;;14.50;99.90;;;;;;4962658;28;20035;-82
2023/08/11 04:59:58;;;;;;;2.53;0.77;;;14.50;99.90;;;;;;4945954;28;20057;-83
2023/08/11 05:02:23;;;;;;;4.28;0.95;;;14.50;99.90;;;;;;4945087;28;20031;-82
2023/08/11 05:04:49;;;;;;;1.95;0.90;;;14.50;99.90;;;;;;4944823;28;20425;-82
2023/08/11 05:07:15;;;;;;;2.63;0.93;;;14.60;99.90;;;;;;4964649;28;20357;-84
2023/08/11 05:09:40;;;;;;;2.00;0.90;;;14.60;99.90;;;;;;4943482;28;20439;-83
2023/08/11 05:12:06;;;;;;;2.50;0.85;;;14.60;99.90;;;;;;4960743;28;20042;-82
2023/08/11 05:14:32;;;;;;;1.63;0.80;;;14.70;99.90;;;;;;4944729;28;20027;-82
2023/08/11 05:16:57;;;;;;;3.08;0.82;;;14.70;99.90;;;;;;4957563;28;20078;-82
2023/08/11 05:19:25;;;;;;;1.83;0.70;;;14.80;99.90;;;;;;4940860;28;20023;-82
2023/08/11 05:21:51;;;;;;;2.45;0.88;;;14.80;99.90;;;;;;4949977;28;20039;-83
2023/08/11 05:24:17;;;;;;;1.83;0.90;;;14.90;99.90;;;;;;4957519;28;20117;-82
2023/08/11 05:26:42;;;;;;;3.30;1.20;;;15.00;99.90;;;;;;4962842;28;20034;-83
2023/08/11 05:29:08;;;;;;;2.13;1.33;;;15.20;99.90;;;;;;4960243;28;20066;-82
2023/08/11 05:31:33;;;;;;;2.67;1.00;;;15.30;99.90;;;;;;4943590;28;20027;-84
2023/08/11 05:33:59;;;;;;;2.53;1.25;;;15.40;99.90;;;;;;4948220;28;20519;-83
2023/08/11 05:36:25;;;;;;;4.03;1.58;;;15.50;99.90;;;;;;4960549;28;20036;-83
2023/08/11 05:38:51;;;;;;;3.25;1.08;;;15.50;99.90;;;;;;4959504;28;20027;-85
2023/08/11 05:41:17;;;;;;;3.00;1.55;;;15.70;99.90;;;;;;4955448;28;20430;-84
2023/08/11 05:43:43;;;;;;;2.30;1.23;;;15.80;99.90;;;;;;4944826;28;20066;-83
2023/08/11 05:46:09;;;;;;;2.40;1.20;;;15.80;99.90;;;;;;4948476;28;20507;-84
2023/08/11 05:48:35;;;;;;;2.63;1.27;;;15.90;99.90;;;;;;4960940;28;20050;-83
2023/08/11 05:51:02;;;;;;;2.50;1.55;;;16.00;99.90;;;;;;4958762;28;20031;-84
2023/08/11 05:53:28;;;;;;;3.75;1.20;;;16.00;99.90;;;;;;4941222;28;20026;-84
2023/08/11 05:55:54;;;;;;;3.05;1.48;;;16.10;99.90;;;;;;4964282;28;20030;-84
2023/08/11 05:58:20;;;;;;;3.42;1.40;;;16.20;99.90;;;;;;4944490;28;20031;-84
2023/08/11 06:00:47;;;;;;;2.22;1.30;;;16.30;99.90;;;;;;4948959;28;20027;-83
2023/08/11 06:03:12;;;;;;;2.33;0.95;;;16.30;99.90;;;;;;4965923;28;20378;-82
2023/08/11 06:05:38;;;;;;;3.50;0.95;;;16.50;99.90;;;;;;4951375;28;20118;-85
2023/08/11 06:08:04;;;;;;;3.30;1.10;;;16.50;99.90;;;;;;4962993;28;20090;-83
2023/08/11 06:10:30;;;;;;;4.03;1.05;;;16.60;99.90;;;;;;4958598;28;20057;-83
2023/08/11 06:12:56;;;;;;;4.13;1.27;;;16.80;99.90;;;;;;4960132;28;20038;-84
2023/08/11 06:15:22;;;;;;;2.00;1.20;;;17.00;99.90;;;;;;4960751;28;20035;-84
2023/08/11 06:17:50;;;;;;;2.45;0.95;;;17.10;99.90;;;;;;4961420;28;20042;-83
2023/08/11 06:20:19;;;;;;;1.75;1.02;;;17.20;99.90;;;;;;4960580;28;20463;-84
2023/08/11 06:22:45;;;;;;;3.28;1.08;;;17.40;99.90;;;;;;4962185;28;20611;-84
2023/08/11 06:25:11;;;;;;;2.65;0.93;;;17.50;99.90;;;;;;4965388;28;20558;-84
2023/08/11 06:27:37;;;;;;;3.58;1.02;;;17.70;99.90;;;;;;4952461;28;20031;-84
2023/08/11 06:30:05;;;;;;;3.17;0.77;;;17.80;99.90;;;;;;4951839;28;20031;-83
2023/08/11 06:32:31;;;;;;;2.47;1.20;;;18.10;99.90;;;;;;4955037;28;20048;-84
2023/08/11 06:34:56;;;;;;;2.58;1.00;;;18.30;99.90;;;;;;4963795;28;20166;-84
2023/08/11 06:37:22;;;;;;;2.88;1.05;;;18.50;99.90;;;;;;4962897;28;20039;-84
2023/08/11 06:39:48;;;;;;;2.47;1.00;;;18.70;99.90;;;;;;4961893;28;20045;-84
2023/08/11 06:42:14;;;;;;;3.25;0.90;;;18.90;99.90;;;;;;4950291;28;20027;-83
2023/08/11 06:44:54;;;;;;;2.33;1.10;;;19.10;99.90;;;;;;4951568;28;20042;-84
2023/08/11 06:47:20;;;;;;;3.35;1.05;;;19.30;99.90;;;;;;4961997;28;20118;-84
2023/08/11 06:49:46;;;;;;;2.85;0.90;;;19.50;99.90;;;;;;4956722;28;20027;-84
2023/08/11 06:52:11;;;;;;;3.10;0.88;;;19.70;99.90;;;;;;4956663;28;20043;-83
2023/08/11 06:54:38;;;;;;;3.42;1.10;;;19.80;99.90;;;;;;4964947;28;20497;-85
2023/08/11 06:57:04;;;;;;;2.00;0.95;;;19.90;99.90;;;;;;4951862;28;20042;-83
2023/08/11 06:59:30;;;;;;;2.13;1.08;;;20.00;99.90;;;;;;4964552;28;20399;-86
2023/08/11 07:01:58;;;;;;;2.58;1.10;;;20.10;99.90;;;;;;4962039;28;20432;-83
2023/08/11 07:04:24;;;;;;;2.30;1.13;;;20.20;99.90;;;;;;4939957;28;20440;-84
2023/08/11 07:06:49;;;;;;;3.65;1.08;;;20.40;99.90;;;;;;4943783;28;20066;-83
2023/08/11 07:09:16;;;;;;;2.03;0.82;;;20.40;99.90;;;;;;4960468;28;20031;-83
2023/08/11 07:11:41;;;;;;;4.25;1.10;;;20.60;99.90;;;;;;4957502;28;20046;-83
2023/08/11 07:14:07;;;;;;;3.45;1.33;;;20.80;99.90;;;;;;4957058;28;20028;-83
2023/08/11 07:16:33;;;;;;;3.45;1.10;;;20.80;99.90;;;;;;4965976;28;20093;-83
2023/08/11 07:18:59;;;;;;;4.00;0.75;;;20.90;99.90;;;;;;4959931;28;20061;-83
2023/08/11 07:21:25;;;;;;;4.30;1.42;;;21.00;99.90;;;;;;4958363;28;20062;-84
2023/08/11 07:23:50;;;;;;;2.58;1.23;;;20.90;99.90;;;;;;4943323;28;20102;-83
2023/08/11 07:26:16;;;;;;;2.78;1.00;;;20.90;99.90;;;;;;4960904;28;20265;-83
2023/08/11 07:28:42;;;;;;;2.88;1.23;;;21.30;99.90;;;;;;4963975;28;20027;-83
2023/08/11 07:31:07;;;;;;;3.65;1.40;;;21.10;99.90;;;;;;4957585;28;20480;-83
2023/08/11 07:33:33;;;;;;;4.28;1.60;;;21.40;99.90;;;;;;4963697;28;20050;-83
2023/08/11 07:35:59;;;;;;;3.65;1.00;;;21.60;99.90;;;;;;4960593;28;20311;-83
2023/08/11 07:38:25;;;;;;;2.25;1.17;;;21.90;99.90;;;;;;4962458;28;20492;-82
2023/08/11 07:40:52;;;;;;;2.20;0.93;;;21.90;99.90;;;;;;4959166;28;20035;-82
2023/08/11 07:43:18;;;;;;;5.18;1.00;;;22.00;99.90;;;;;;4943786;28;20054;-83
2023/08/11 07:45:43;;;;;;;3.50;1.42;;;21.90;99.90;;;;;;4950851;28;20031;-83
2023/08/11 07:48:09;;;;;;;3.05;1.63;;;22.00;99.90;;;;;;4967021;28;20031;-84
2023/08/11 07:50:38;;;;;;;2.15;0.95;;;22.00;99.90;;;;;;4944750;28;20153;-83
2023/08/11 07:53:04;;;;;;;4.37;0.83;;;22.50;99.90;;;;;;4950888;28;20035;-83
2023/08/11 07:55:30;;;;;;;4.82;1.80;;;22.70;99.90;;;;;;4958118;28;20027;-83
2023/08/11 07:57:55;;;;;;;2.10;0.98;;;22.40;99.90;;;;;;4956270;28;20097;-83
2023/08/11 08:00:24;;;;;;;2.30;1.08;;;22.70;99.90;;;;;;4957502;28;20452;-84
2023/08/11 08:02:52;;;;;;;3.97;1.17;;;22.90;99.90;;;;;;4955007;28;20031;-84
2023/08/11 08:05:18;;;;;;;2.53;1.38;;;23.00;99.90;;;;;;4965403;28;20037;-86
2023/08/11 08:07:44;;;;;;;2.30;0.80;;;22.90;99.90;;;;;;4961025;28;20027;-85
2023/08/11 08:10:11;;;;;;;3.15;0.95;;;23.20;99.90;;;;;;4942673;28;20451;-83
2023/08/11 08:12:38;;;;;;;1.98;0.77;;;23.50;99.90;;;;;;4942999;28;20121;-83
2023/08/11 08:15:06;;;;;;;4.25;1.17;;;23.50;99.90;;;;;;4950741;28;20407;-84
2023/08/11 08:17:32;;;;;;;2.17;0.98;;;23.20;99.90;;;;;;4954699;28;20042;-87
2023/08/11 08:19:58;;;;;;;3.20;0.93;;;23.40;99.90;;;;;;4966630;28;20031;-90
2023/08/11 08:22:24;;;;;;;1.67;0.70;;;23.70;99.90;;;;;;4949254;28;20033;-85
2023/08/11 08:24:51;;;;;;;2.33;0.90;;;23.50;99.90;;;;;;4949374;28;20041;-84
2023/08/11 08:27:23;;;;;;;2.70;1.00;;;23.80;99.90;;;;;;4950564;28;20077;-84
2023/08/11 08:29:49;;;;;;;2.75;1.00;;;23.70;99.90;;;;;;4960731;28;20019;-85
2023/08/11 08:32:15;;;;;;;2.10;1.10;;;23.90;99.90;;;;;;4958104;28;20392;-86
2023/08/11 08:34:43;;;;;;;1.70;0.85;;;24.10;99.90;;;;;;4955634;28;20042;-84
2023/08/11 08:37:08;;;;;;;2.60;0.80;;;24.20;99.90;;;;;;4954611;28;20479;-86
2023/08/11 08:39:34;;;;;;;1.63;0.80;;;24.40;99.90;;;;;;4961783;28;20143;-84
2023/08/11 08:42:03;;;;;;;2.88;0.95;;;24.30;99.90;;;;;;4940968;28;20038;-84
2023/08/11 08:44:30;;;;;;;1.67;0.95;;;24.40;99.90;;;;;;4955194;28;20105;-84
2023/08/11 08:46:59;;;;;;;2.15;0.60;;;24.70;99.90;;;;;;4944170;28;20039;-84
2023/08/11 08:49:26;;;;;;;1.40;0.68;;;25.00;99.90;;;;;;4942069;28;20031;-83
2023/08/11 08:51:56;;;;;;;3.40;0.88;;;25.00;99.90;;;;;;4952958;28;20027;-84
2023/08/11 08:54:23;;;;;;;1.60;0.60;;;24.90;99.90;;;;;;4953388;28;20031;-84
2023/08/11 08:56:53;;;;;;;2.63;0.70;;;25.10;99.90;;;;;;4956428;28;20114;-82
2023/08/11 08:59:20;;;;;;;2.22;0.70;;;25.60;99.90;;;;;;4957981;28;20046;-84
2023/08/11 09:01:46;;;;;;;1.70;0.60;;;25.60;99.90;;;;;;4955999;28;20502;-83
2023/08/11 09:04:12;;;;;;;1.67;0.57;;;25.30;99.90;;;;;;4955367;28;20491;-83
2023/08/11 09:06:39;;;;;;;5.35;0.75;;;25.60;99.90;;;;;;4960530;28;20058;-84
2023/08/11 09:09:06;;;;;;;2.17;0.90;;;25.60;99.90;;;;;;4956970;28;20031;-84
2023/08/11 09:11:32;;;;;;;2.65;0.68;;;25.20;99.90;;;;;;4960516;28;20039;-85
2023/08/11 09:14:02;;;;;;;1.73;0.60;;;25.20;99.90;;;;;;4946535;28;20043;-84
2023/08/11 09:16:28;;;;;;;1.88;0.73;;;25.70;99.90;;;;;;4955874;28;20171;-85
2023/08/11 09:18:54;;;;;;;1.70;0.70;;;25.90;99.90;;;;;;4963221;28;20122;-84
2023/08/11 09:21:22;;;;;;;1.80;0.52;;;25.90;99.90;;;;;;4946635;28;20038;-83
2023/08/11 09:23:51;;;;;;;3.72;0.60;;;25.90;99.90;;;;;;4945585;28;20029;-83
2023/08/11 09:26:19;;;;;;;2.13;0.75;;;25.70;99.90;;;;;;4958118;28;20066;-83
2023/08/11 09:28:44;;;;;;;4.45;0.80;;;26.20;99.90;;;;;;4964326;28;20491;-82
2023/08/11 09:31:12;;;;;;;2.00;0.60;;;26.00;99.90;;;;;;4958851;28;20081;-83
2023/08/11 09:33:38;;;;;;;1.60;0.50;;;26.20;99.90;;;;;;4947799;28;20054;-84
2023/08/11 09:36:04;;;;;;;1.75;0.70;;;26.30;99.90;;;;;;4945917;28;20035;-84
2023/08/11 09:38:30;;;;;;;1.77;0.60;;;26.20;99.90;;;;;;4949367;28;20031;-88
2023/08/11 09:41:01;;;;;;;1.52;0.60;;;26.70;99.90;;;;;;4945656;28;20035;-83
2023/08/11 09:43:29;;;;;;;1.73;0.70;;;26.50;99.90;;;;;;4944623;28;20034;-82
2023/08/11 09:45:54;;;;;;;1.98;0.63;;;26.20;99.90;;;;;;4962220;28;20070;-83
2023/08/11 09:48:21;;;;;;;2.78;0.80;;;26.60;99.90;;;;;;4948834;28;20388;-86
2023/08/11 09:50:48;;;;;;;3.35;0.52;;;26.60;99.90;;;;;;4959020;28;20023;-82
2023/08/11 09:53:15;;;;;;;1.25;0.47;;;26.70;99.90;;;;;;4964662;28;20031;-83
2023/08/11 09:55:41;;;;;;;2.38;0.60;;;26.70;99.90;;;;;;4963811;28;20131;-83
2023/08/11 09:58:12;;;;;;;2.10;0.52;;;26.70;99.90;;;;;;4963453;28;20050;-83
2023/08/11 10:00:38;;;;;;;1.92;0.50;;;26.70;99.90;;;;;;4950617;28;20073;-83
2023/08/11 10:03:06;;;;;;;1.38;0.50;;;27.20;99.90;;;;;;4966376;28;20039;-83
2023/08/11 10:05:36;;;;;;;1.80;0.60;;;27.10;99.90;;;;;;4961931;28;20038;-83
2023/08/11 10:08:05;;;;;;;1.45;0.55;;;26.70;99.90;;;;;;4959837;28;20026;-85
2023/08/11 10:10:31;;;;;;;2.53;0.57;;;27.20;99.90;;;;;;4966349;28;20030;-84
2023/08/11 10:13:20;;;;;;;1.85;0.60;;;27.60;99.90;;;;;;4948063;28;20050;-83
2023/08/11 10:15:48;;;;;;;1.52;0.40;;;27.80;99.90;;;;;;4959623;28;20035;-84
2023/08/11 10:18:16;;;;;;;1.17;0.40;;;27.60;99.90;;;;;;4943573;28;20031;-88
2023/08/11 10:20:42;;;;;;;1.50;0.50;;;27.90;99.90;;;;;;4949651;28;20476;-83
2023/08/11 10:23:09;;;;;;;1.35;0.40;;;27.70;99.90;;;;;;4947198;28;20130;-84
2023/08/11 10:25:36;;;;;;;0.70;0.30;;;27.50;99.90;;;;;;4957255;28;20042;-83
2023/08/11 10:28:06;;;;;;;2.30;0.50;;;27.70;99.90;;;;;;4958185;28;20034;-86
2023/08/11 10:30:33;;;;;;;0.90;0.40;;;28.00;99.90;;;;;;4948507;28;20027;-88
2023/08/11 10:33:06;;;;;;;2.58;0.40;;;28.20;99.90;;;;;;4950101;28;20454;-88
2023/08/11 10:35:35;;;;;;;2.45;0.60;;;28.50;99.90;;;;;;4963618;28;20037;-83
2023/08/11 10:38:04;;;;;;;1.60;0.40;;;28.40;99.90;;;;;;4959294;28;20043;-83
2023/08/11 10:40:39;;;;;;;2.15;0.45;;;28.70;99.90;;;;;;4941350;28;20145;-85
2023/08/11 10:43:06;;;;;;;1.33;0.50;;;28.90;99.90;;;;;;4961117;28;20193;-84
2023/08/11 10:45:36;;;;;;;1.10;0.40;;;28.50;99.90;;;;;;4947326;28;20118;-82
2023/08/11 10:48:09;;;;;;;1.90;0.50;;;28.20;99.90;;;;;;4961650;28;20032;-84
2023/08/11 10:50:38;;;;;;;0.90;0.40;;;27.90;99.90;;;;;;4954172;28;20089;-83
2023/08/11 10:53:20;;;;;;;0.90;0.40;;;28.20;99.90;;;;;;4948219;28;20028;-85
2023/08/11 10:56:05;;;;;;;1.73;0.40;;;28.60;99.90;;;;;;4959397;28;20030;-83
2023/08/11 10:58:31;;;;;;;1.40;0.50;;;28.90;99.90;;;;;;4961851;28;20138;-84
2023/08/11 11:00:58;;;;;;;7.75;0.35;;;29.00;99.90;;;;;;4962318;28;20026;-83
2023/08/11 11:03:23;;;;;;;1.73;0.50;;;29.30;99.90;;;;;;4961643;28;20354;-83
2023/08/11 11:05:50;;;;;;;1.88;0.50;;;28.80;99.90;;;;;;4958672;28;20034;-83
2023/08/11 11:08:15;;;;;;;1.02;0.30;;;28.30;99.90;;;;;;4958928;28;20109;-85
2023/08/11 11:10:41;;;;;;;1.40;0.40;;;27.90;99.90;;;;;;4960950;28;20548;-84
2023/08/11 11:13:08;;;;;;;1.35;0.47;;;27.40;99.90;;;;;;4945218;28;20047;-83
2023/08/11 11:15:34;;;;;;;2.05;0.40;;;27.90;99.90;;;;;;4960413;28;20049;-84
2023/08/11 11:18:00;;;;;;;1.65;0.55;;;28.80;99.90;;;;;;4958644;28;20492;-83
2023/08/11 11:20:27;;;;;;;1.05;0.40;;;28.40;99.90;;;;;;4963923;28;20101;-87
2023/08/11 11:22:55;;;;;;;0.93;0.40;;;28.80;99.90;;;;;;4974773;28;20442;-82
2023/08/11 11:25:21;;;;;;;1.00;0.35;;;28.50;99.90;;;;;;4960522;28;20034;-83
2023/08/11 11:27:48;;;;;;;1.70;0.40;;;28.80;99.90;;;;;;4949076;28;20046;-84
2023/08/11 11:30:14;;;;;;;2.05;0.40;;;28.90;99.90;;;;;;4955117;28;20027;-84
2023/08/11 11:32:42;;;;;;;1.15;0.40;;;29.20;99.90;;;;;;4959233;28;20039;-87
2023/08/11 11:35:09;;;;;;;1.10;0.40;;;29.30;99.90;;;;;;4957753;28;20042;-83
2023/08/11 11:37:35;;;;;;;1.13;0.30;;;29.00;99.90;;;;;;4962369;28;20399;-86
2023/08/11 11:40:06;;;;;;;1.90;0.50;;;29.20;99.90;;;;;;4962403;28;20185;-84
2023/08/11 11:42:36;;;;;;;1.40;0.47;;;29.00;99.90;;;;;;4958349;28;20089;-85
2023/08/11 11:45:02;;;;;;;2.17;0.50;;;29.40;99.90;;;;;;4946286;28;20173;-84
2023/08/11 11:47:28;;;;;;;1.10;0.40;;;29.00;99.90;;;;;;4958681;28;20395;-83
2023/08/11 11:49:58;;;;;;;1.45;0.50;;;29.40;99.90;;;;;;4945313;28;20031;-85
2023/08/11 11:52:25;;;;;;;1.40;0.40;;;29.50;99.90;;;;;;4939504;28;20620;-84
2023/08/11 11:54:52;;;;;;;0.95;0.40;;;29.60;99.90;;;;;;4942974;28;20058;-84
2023/08/11 11:57:18;;;;;;;1.48;0.30;;;29.50;99.90;;;;;;4972400;28;20046;-83
2023/08/11 11:59:46;;;;;;;1.55;0.60;;;29.50;99.90;;;;;;4958472;28;20050;-81
2023/08/11 12:02:12;;;;;;;1.05;0.40;;;29.00;99.90;;;;;;4947020;28;20034;-84
2023/08/11 12:04:40;;;;;;;1.40;0.47;;;29.10;99.90;;;;;;4964306;28;20111;-84
2023/08/11 12:07:07;;;;;;;1.10;0.40;;;29.00;99.90;;;;;;4944364;28;20031;-83
2023/08/11 12:09:49;;;;;;;1.63;0.40;;;29.40;99.90;;;;;;4960424;28;20467;-82
2023/08/11 12:12:15;;;;;;;2.28;0.32;;;29.30;99.90;;;;;;4956637;28;20387;-83
2023/08/11 12:14:41;;;;;;;1.90;0.38;;;29.30;99.90;;;;;;4962323;28;20035;-86
2023/08/11 12:17:07;;;;;;;0.98;0.40;;;29.10;99.90;;;;;;4957813;28;20043;-84
2023/08/11 12:19:33;;;;;;;2.05;0.40;;;29.60;99.90;;;;;;4963454;28;20385;-85
2023/08/11 12:22:00;;;;;;;1.23;0.43;;;29.80;99.90;;;;;;4949780;28;20445;-84
2023/08/11 12:24:25;;;;;;;1.20;0.40;;;29.40;99.90;;;;;;4957655;28;20039;-84
2023/08/11 12:26:51;;;;;;;1.10;0.40;;;29.40;99.90;;;;;;4958857;28;20046;-83
2023/08/11 12:29:17;;;;;;;1.00;0.40;;;29.00;99.90;;;;;;4957010;28;20029;-84
2023/08/11 12:31:43;;;;;;;1.58;0.40;;;29.30;99.90;;;;;;4959197;28;21825;-83
2023/08/11 12:34:08;;;;;;;1.23;0.40;;;29.50;99.90;;;;;;4958327;28;20090;-84
2023/08/11 12:36:34;;;;;;;1.17;0.40;;;29.60;99.90;;;;;;4959260;28;20046;-86
2023/08/11 12:39:00;;;;;;;0.80;0.30;;;30.20;99.90;;;;;;4943614;28;20262;-85
2023/08/11 12:41:25;;;;;;;1.30;0.30;;;30.30;99.90;;;;;;4953952;28;20031;-82
2023/08/11 12:43:51;;;;;;;0.90;0.40;;;29.80;99.90;;;;;;4945029;28;20136;-88
2023/08/11 12:46:17;;;;;;;0.80;0.38;;;29.80;99.90;;;;;;4940707;28;20488;-83
2023/08/11 12:48:42;;;;;;;1.10;0.40;;;29.40;99.90;;;;;;4961345;28;20120;-82